createdAt,value
2023-05-23T00:02:15.569Z,98614.44
2023-05-23T00:04:42.924Z,98607.81
2023-05-23T00:07:15.239Z,98608.28
2023-05-23T00:09:42.461Z,98611.25
2023-05-23T00:12:09.340Z,98607.16
2023-05-23T00:14:36.196Z,98607.16
2023-05-23T00:17:03.300Z,98612.63
2023-05-23T00:19:30.483Z,98606.22
2023-05-23T00:21:58.481Z,98612.59
2023-05-23T00:24:25.791Z,98611.00
2023-05-23T00:26:52.785Z,98606.34
2023-05-23T00:29:20.027Z,98611.47
2023-05-23T00:31:47.569Z,98614.31
2023-05-23T00:34:18.076Z,98616.00
2023-05-23T00:36:47.661Z,98620.34
2023-05-23T00:39:19.568Z,98621.25
2023-05-23T00:41:52.120Z,98624.69
2023-05-23T00:44:20.162Z,98629.00
2023-05-23T00:46:54.168Z,98620.91
2023-05-23T00:49:21.762Z,98626.03
2023-05-23T00:51:50.032Z,98625.81
2023-05-23T00:54:31.188Z,98618.75
2023-05-23T00:56:59.774Z,98617.47
2023-05-23T00:59:27.175Z,98624.09
2023-05-23T01:01:58.437Z,98628.44
2023-05-23T01:04:32.458Z,98625.38
2023-05-23T01:07:00.732Z,98637.94
2023-05-23T01:09:29.157Z,98629.47
2023-05-23T01:12:33.354Z,98633.09
2023-05-23T01:15:09.950Z,98637.00
2023-05-23T01:18:03.005Z,98632.78
2023-05-23T01:20:45.298Z,98637.09
2023-05-23T01:23:24.136Z,98639.16
2023-05-23T01:26:38.951Z,98642.91
2023-05-23T01:29:16.724Z,98631.38
2023-05-23T01:31:46.777Z,98630.25
2023-05-23T01:34:14.661Z,98636.16
2023-05-23T01:36:43.922Z,98633.88
2023-05-23T01:39:11.972Z,98633.75
2023-05-23T01:41:38.808Z,98635.28
2023-05-23T01:44:06.038Z,98632.84
2023-05-23T01:46:35.723Z,98625.09
2023-05-23T01:49:06.925Z,98626.69
2023-05-23T01:51:35.038Z,98625.09
2023-05-23T01:54:02.171Z,98635.59
2023-05-23T01:56:30.470Z,98634.00
2023-05-23T01:58:57.852Z,98634.91
2023-05-23T02:01:25.039Z,98636.41
2023-05-23T02:03:51.857Z,98637.44
2023-05-23T02:06:21.457Z,98634.84
2023-05-23T02:08:48.404Z,98638.81
2023-05-23T02:11:16.012Z,98643.63
2023-05-23T02:13:45.424Z,98639.84
2023-05-23T02:16:13.891Z,98633.56
2023-05-23T02:18:40.763Z,98644.97
2023-05-23T02:21:07.599Z,98646.81
2023-05-23T02:23:36.917Z,98643.97
2023-05-23T02:26:10.877Z,98651.38
2023-05-23T02:28:37.745Z,98644.44
2023-05-23T02:31:04.773Z,98647.94
2023-05-23T02:33:31.632Z,98637.22
2023-05-23T02:35:58.453Z,98641.25
2023-05-23T02:38:26.825Z,98636.53
2023-05-23T02:40:53.786Z,98652.28
2023-05-23T02:43:20.655Z,98652.28
2023-05-23T02:45:47.485Z,98654.13
2023-05-23T02:48:14.337Z,98656.09
2023-05-23T02:50:41.392Z,98654.56
2023-05-23T02:53:08.307Z,98664.38
2023-05-23T02:55:35.425Z,98664.84
2023-05-23T02:58:05.632Z,98653.78
2023-05-23T03:00:32.574Z,98663.59
2023-05-23T03:02:59.574Z,98663.81
2023-05-23T03:05:26.492Z,98663.44
2023-05-23T03:07:54.669Z,98658.78
2023-05-23T03:10:21.567Z,98658.34
2023-05-23T03:12:48.322Z,98665.75
2023-05-23T03:15:15.268Z,98660.25
2023-05-23T03:17:42.472Z,98663.81
2023-05-23T03:20:10.472Z,98665.06
2023-05-23T03:22:39.828Z,98659.31
2023-05-23T03:25:07.372Z,98666.88
2023-05-23T03:27:34.145Z,98668.56
2023-05-23T03:30:01.102Z,98665.56
2023-05-23T03:32:27.876Z,98673.56
2023-05-23T03:34:54.703Z,98671.97
2023-05-23T03:37:21.924Z,98677.13
2023-05-23T03:39:48.781Z,98671.06
2023-05-23T03:42:15.615Z,98686.03
2023-05-23T03:44:42.679Z,98686.81
2023-05-23T03:47:09.721Z,98678.72
2023-05-23T03:49:36.676Z,98685.09
2023-05-23T03:52:03.498Z,98679.25
2023-05-23T03:54:30.534Z,98683.25
2023-05-23T03:56:57.424Z,98685.63
2023-05-23T03:59:24.285Z,98682.44
2023-05-23T04:01:51.040Z,98680.50
2023-05-23T04:04:18.217Z,98681.19
2023-05-23T04:06:46.103Z,98686.94
2023-05-23T04:09:14.413Z,98686.13
2023-05-23T04:11:41.441Z,98688.16
2023-05-23T04:14:08.230Z,98687.84
2023-05-23T04:16:36.267Z,98694.47
2023-05-23T04:19:06.256Z,98693.31
2023-05-23T04:21:34.126Z,98691.72
2023-05-23T04:24:02.479Z,98693.31
2023-05-23T04:26:29.295Z,98705.06
2023-05-23T04:28:56.776Z,98697.66
2023-05-23T04:31:23.702Z,98697.19
2023-05-23T04:33:50.751Z,98700.72
2023-05-23T04:36:18.322Z,98698.22
2023-05-23T04:38:45.164Z,98702.13
2023-05-23T04:41:12.119Z,98707.97
2023-05-23T04:43:42.435Z,98713.91
2023-05-23T04:46:10.094Z,98713.09
2023-05-23T04:48:38.880Z,98716.63
2023-05-23T04:51:08.545Z,98724.06
2023-05-23T04:53:37.029Z,98725.19
2023-05-23T04:56:04.003Z,98726.78
2023-05-23T04:58:31.858Z,98729.53
2023-05-23T05:00:58.842Z,98726.34
2023-05-23T05:03:26.516Z,98732.19
2023-05-23T05:05:53.846Z,98727.50
2023-05-23T05:08:20.758Z,98734.13
2023-05-23T05:10:47.853Z,98735.63
2023-05-23T05:13:14.764Z,98739.84
2023-05-23T05:15:42.500Z,98738.69
2023-05-23T05:18:09.430Z,98741.88
2023-05-23T05:20:36.316Z,98736.75
2023-05-23T05:23:03.359Z,98739.84
2023-05-23T05:25:32.309Z,98749.19
2023-05-23T05:28:21.843Z,98744.78
2023-05-23T05:30:54.010Z,98750.59
2023-05-23T05:33:25.438Z,98746.69
2023-05-23T05:35:52.439Z,98748.63
2023-05-23T05:38:22.585Z,98750.25
2023-05-23T05:40:49.393Z,98754.59
2023-05-23T05:43:16.255Z,98751.38
2023-05-23T05:45:43.229Z,98750.59
2023-05-23T05:48:10.213Z,98752.63
2023-05-23T05:50:37.053Z,98759.47
2023-05-23T05:53:04.186Z,98759.38
2023-05-23T05:55:31.447Z,98766.69
2023-05-23T05:57:58.849Z,98765.44
2023-05-23T06:00:25.926Z,98762.81
2023-05-23T06:02:55.025Z,98764.50
2023-05-23T06:05:22.171Z,98759.47
2023-05-23T06:07:50.343Z,98759.38
2023-05-23T06:10:17.443Z,98768.16
2023-05-23T06:12:45.870Z,98769.66
2023-05-23T06:15:15.966Z,98773.41
2023-05-23T06:17:44.901Z,98770.69
2023-05-23T06:20:12.293Z,98780.41
2023-05-23T06:22:39.286Z,98784.16
2023-05-23T06:25:07.597Z,98780.63
2023-05-23T06:27:34.491Z,98789.88
2023-05-23T06:30:02.257Z,98787.47
2023-05-23T06:32:29.463Z,98790.66
2023-05-23T06:34:56.452Z,98797.28
2023-05-23T06:37:23.772Z,98801.97
2023-05-23T06:39:50.540Z,98804.38
2023-05-23T06:42:18.057Z,98815.09
2023-05-23T06:44:44.862Z,98819.09
2023-05-23T06:47:11.677Z,98827.00
2023-05-23T06:49:38.486Z,98814.78
2023-05-23T06:52:05.421Z,98823.31
2023-05-23T06:54:32.482Z,98829.94
2023-05-23T06:56:59.518Z,98838.16
2023-05-23T06:59:26.345Z,98844.91
2023-05-23T07:01:53.184Z,98853.94
2023-05-23T07:04:22.777Z,98861.50
2023-05-23T07:06:49.998Z,98863.66
2023-05-23T07:09:18.323Z,98866.25
2023-05-23T07:11:45.244Z,98860.00
2023-05-23T07:14:12.103Z,98868.53
2023-05-23T07:16:39.280Z,98866.63
2023-05-23T07:19:06.348Z,98870.59
2023-05-23T07:21:36.792Z,98870.50
2023-05-23T07:24:03.697Z,98876.66
2023-05-23T07:26:30.987Z,98871.19
2023-05-23T07:28:58.742Z,98870.50
2023-05-23T07:31:26.006Z,98872.31
2023-05-23T07:33:56.714Z,98874.59
2023-05-23T07:36:23.740Z,98876.34
2023-05-23T07:38:50.606Z,98870.84
2023-05-23T07:41:17.901Z,98876.22
2023-05-23T07:43:44.689Z,98881.38
2023-05-23T07:46:11.585Z,98875.41
2023-05-23T07:48:38.396Z,98879.75
2023-05-23T07:51:05.479Z,98880.44
2023-05-23T07:53:32.250Z,98878.94
2023-05-23T07:55:59.121Z,98877.47
2023-05-23T07:58:26.052Z,98886.94
2023-05-23T08:00:53.559Z,98888.31
2023-05-23T08:03:20.644Z,98887.31
2023-05-23T08:05:47.931Z,98887.75
2023-05-23T08:08:14.768Z,98885.94
2023-05-23T08:10:42.600Z,98894.94
2023-05-23T08:13:10.599Z,98896.09
2023-05-23T08:15:37.535Z,98892.09
2023-05-23T08:18:05.212Z,98893.03
2023-05-23T08:20:32.313Z,98892.34
2023-05-23T08:23:00.998Z,98895.63
2023-05-23T08:25:30.393Z,98899.50
2023-05-23T08:27:58.765Z,98890.72
2023-05-23T08:30:30.070Z,98898.50
2023-05-23T08:32:57.934Z,98904.78
2023-05-23T08:35:25.507Z,98902.38
2023-05-23T08:37:52.839Z,98917.00
2023-05-23T08:40:23.086Z,98909.25
2023-05-23T08:42:51.368Z,98918.16
2023-05-23T08:45:19.353Z,98912.44
2023-05-23T08:47:47.490Z,98912.66
2023-05-23T08:50:20.124Z,98919.84
2023-05-23T08:52:58.860Z,98916.75
2023-05-23T08:55:29.114Z,98917.22
2023-05-23T08:58:03.562Z,98911.28
2023-05-23T09:00:30.588Z,98914.47
2023-05-23T09:02:57.687Z,98921.09
2023-05-23T09:05:26.995Z,98927.16
2023-05-23T09:07:55.012Z,98926.69
2023-05-23T09:10:22.202Z,98932.41
2023-05-23T09:12:49.695Z,98926.91
2023-05-23T09:15:17.271Z,98928.75
2023-05-23T09:17:45.532Z,98933.31
2023-05-23T09:20:16.065Z,98935.06
2023-05-23T09:22:48.259Z,98938.03
2023-05-23T09:25:15.939Z,98943.38
2023-05-23T09:27:47.470Z,98947.06
2023-05-23T09:30:15.670Z,98939.59
2023-05-23T09:32:42.695Z,98946.47
2023-05-23T09:35:14.039Z,98943.84
2023-05-23T09:37:46.972Z,98939.25
2023-05-23T09:40:15.965Z,98940.59
2023-05-23T09:42:45.978Z,98936.47
2023-05-23T09:45:14.445Z,98936.91
2023-05-23T09:47:54.324Z,98935.19
2023-05-23T09:50:22.714Z,98932.25
2023-05-23T09:52:51.099Z,98936.28
2023-05-23T09:55:19.839Z,98938.59
2023-05-23T09:57:56.687Z,98937.78
2023-05-23T10:00:28.363Z,98942.03
2023-05-23T10:03:13.821Z,98948.53
2023-05-23T10:05:53.297Z,98945.66
2023-05-23T10:08:46.917Z,98944.84
2023-05-23T10:11:13.752Z,98946.94
2023-05-23T10:13:49.047Z,98945.09
2023-05-23T10:16:27.217Z,98946.38
2023-05-23T10:19:06.039Z,98953.00
2023-05-23T10:22:16.778Z,98954.59
2023-05-23T10:24:46.326Z,98951.94
2023-05-23T10:27:14.517Z,98949.19
2023-05-23T10:29:42.019Z,98960.50
2023-05-23T10:32:10.478Z,98952.38
2023-05-23T10:35:03.999Z,98952.25
2023-05-23T10:37:56.065Z,98953.22
2023-05-23T10:40:30.730Z,98945.91
2023-05-23T10:43:06.445Z,98951.63
2023-05-23T10:45:44.505Z,98947.28
2023-05-23T10:48:38.384Z,98947.03
2023-05-23T10:51:11.234Z,98943.06
2023-05-23T10:53:53.735Z,98947.19
2023-05-23T10:56:24.367Z,98947.31
2023-05-23T10:58:56.353Z,98950.06
2023-05-23T11:01:24.096Z,98952.25
2023-05-23T11:03:55.999Z,98946.53
2023-05-23T11:06:38.643Z,98953.28
2023-05-23T11:09:22.578Z,98956.34
2023-05-23T11:12:04.587Z,98949.97
2023-05-23T11:14:35.333Z,98953.44
2023-05-23T11:17:17.617Z,98944.34
2023-05-23T11:20:08.626Z,98943.53
2023-05-23T11:22:36.652Z,98947.44
2023-05-23T11:25:11.631Z,98953.28
2023-05-23T11:27:41.727Z,98947.22
2023-05-23T11:30:17.687Z,98950.47
2023-05-23T11:32:54.093Z,98944.25
2023-05-23T11:35:24.061Z,98945.84
2023-05-23T11:37:51.473Z,98935.53
2023-05-23T11:40:35.702Z,98935.69
2023-05-23T11:43:05.890Z,98945.59
2023-05-23T11:45:34.787Z,98944.56
2023-05-23T11:48:10.121Z,98945.88
2023-05-23T11:50:52.349Z,98938.63
2023-05-23T11:53:25.006Z,98945.28
2023-05-23T11:56:00.574Z,98940.72
2023-05-23T11:58:31.723Z,98933.75
2023-05-23T12:01:08.992Z,98942.69
2023-05-23T12:03:51.111Z,98944.19
2023-05-23T12:06:24.587Z,98935.91
2023-05-23T12:08:55.760Z,98933.66
2023-05-23T12:11:24.268Z,98935.50
2023-05-23T12:13:53.391Z,98933.22
2023-05-23T12:16:21.720Z,98915.25
2023-05-23T12:18:48.800Z,98926.16
2023-05-23T12:21:15.723Z,98918.72
2023-05-23T12:23:42.990Z,98909.56
2023-05-23T12:26:12.380Z,98915.06
2023-05-23T12:28:45.167Z,98909.38
2023-05-23T12:31:22.843Z,98913.31
2023-05-23T12:33:53.322Z,98902.72
2023-05-23T12:36:29.621Z,98900.41
2023-05-23T12:39:03.506Z,98901.91
2023-05-23T12:41:30.505Z,98899.78
2023-05-23T12:43:57.804Z,98904.59
2023-05-23T12:46:27.204Z,98916.78
2023-05-23T12:48:54.874Z,98924.19
2023-05-23T12:51:22.455Z,98919.53
2023-05-23T12:53:49.986Z,98920.16
2023-05-23T12:56:17.186Z,98911.59
2023-05-23T12:58:44.049Z,98914.09
2023-05-23T13:01:11.194Z,98918.28
2023-05-23T13:03:38.147Z,98919.69
2023-05-23T13:06:07.874Z,98913.41
2023-05-23T13:08:34.666Z,98920.34
2023-05-23T13:11:01.751Z,98912.72
2023-05-23T13:13:28.967Z,98913.38
2023-05-23T13:15:56.551Z,98901.81
2023-05-23T13:18:23.673Z,98903.63
2023-05-23T13:20:51.133Z,98916.22
2023-05-23T13:23:18.082Z,98914.25
2023-05-23T13:25:45.312Z,98917.97
2023-05-23T13:28:12.393Z,98911.59
2023-05-23T13:30:39.472Z,98912.09
2023-05-23T13:33:06.488Z,98915.91
2023-05-23T13:35:33.314Z,98909.41
2023-05-23T13:38:00.386Z,98903.44
2023-05-23T13:40:27.278Z,98902.56
2023-05-23T13:42:54.342Z,98907.13
2023-05-23T13:45:22.995Z,98901.47
2023-05-23T13:47:50.061Z,98911.47
2023-05-23T13:50:17.283Z,98900.91
2023-05-23T13:52:48.312Z,98894.75
2023-05-23T13:55:17.501Z,98893.66
2023-05-23T13:57:45.051Z,98894.69
2023-05-23T14:00:12.805Z,98893.06
2023-05-23T14:02:39.990Z,98890.22
2023-05-23T14:05:08.011Z,98880.91
2023-05-23T14:07:34.925Z,98887.59
2023-05-23T14:10:01.868Z,98888.56
2023-05-23T14:12:29.265Z,98884.84
2023-05-23T14:14:56.035Z,98890.22
2023-05-23T14:17:23.086Z,98890.25
2023-05-23T14:19:50.587Z,98901.13
2023-05-23T14:22:20.421Z,98894.75
2023-05-23T14:24:47.249Z,98899.03
2023-05-23T14:27:14.644Z,98896.81
2023-05-23T14:29:46.194Z,98899.22
2023-05-23T14:32:13.678Z,98896.69
2023-05-23T14:34:43.699Z,98899.50
2023-05-23T14:37:10.565Z,98905.28
2023-05-23T14:39:37.473Z,98901.78
2023-05-23T14:42:04.935Z,98889.50
2023-05-23T14:44:31.824Z,98892.09
2023-05-23T14:46:58.758Z,98895.41
2023-05-23T14:49:25.570Z,98897.97
2023-05-23T14:51:52.457Z,98891.13
2023-05-23T14:54:19.505Z,98893.94
2023-05-23T14:56:46.542Z,98897.56
2023-05-23T14:59:13.828Z,98893.91
2023-05-23T15:01:42.281Z,98897.75
2023-05-23T15:04:10.037Z,98899.44
2023-05-23T15:06:38.852Z,98898.28
2023-05-23T15:09:07.292Z,98894.38
2023-05-23T15:11:38.649Z,98887.63
2023-05-23T15:14:05.775Z,98896.34
2023-05-23T15:16:33.174Z,98882.97
2023-05-23T15:19:00.717Z,98888.97
2023-05-23T15:21:28.161Z,98881.00
2023-05-23T15:23:55.366Z,98888.44
2023-05-23T15:26:22.529Z,98878.75
2023-05-23T15:28:49.689Z,98880.94
2023-05-23T15:31:16.614Z,98882.25
2023-05-23T15:33:43.649Z,98887.56
2023-05-23T15:36:13.043Z,98889.09
2023-05-23T15:38:40.310Z,98881.69
2023-05-23T15:41:07.463Z,98876.00
2023-05-23T15:43:37.631Z,98877.84
2023-05-23T15:46:05.405Z,98882.81
2023-05-23T15:48:32.320Z,98880.22
2023-05-23T15:50:59.122Z,98886.38
2023-05-23T15:53:25.985Z,98879.22
2023-05-23T15:55:52.766Z,98880.81
2023-05-23T15:58:19.926Z,98880.53
2023-05-23T16:00:46.794Z,98882.53
2023-05-23T16:03:13.903Z,98881.38
2023-05-23T16:05:41.127Z,98881.34
2023-05-23T16:08:08.101Z,98883.44
2023-05-23T16:10:35.002Z,98888.00
2023-05-23T16:13:02.204Z,98894.16
2023-05-23T16:15:29.497Z,98887.41
2023-05-23T16:17:56.271Z,98888.53
2023-05-23T16:20:24.654Z,98885.63
2023-05-23T16:22:51.620Z,98883.06
2023-05-23T16:25:19.239Z,98888.84
2023-05-23T16:27:46.079Z,98879.28
2023-05-23T16:30:13.248Z,98887.03
2023-05-23T16:32:40.090Z,98888.63
2023-05-23T16:35:08.101Z,98884.34
2023-05-23T16:37:34.961Z,98891.91
2023-05-23T16:40:01.811Z,98893.22
2023-05-23T16:42:28.697Z,98888.72
2023-05-23T16:44:58.416Z,98878.97
2023-05-23T16:47:25.554Z,98875.03
2023-05-23T16:49:52.385Z,98883.31
2023-05-23T16:52:19.301Z,98877.22
2023-05-23T16:54:46.232Z,98879.53
2023-05-23T16:57:13.160Z,98882.13
2023-05-23T16:59:41.188Z,98892.72
2023-05-23T17:02:11.155Z,98889.09
2023-05-23T17:04:38.073Z,98887.03
2023-05-23T17:07:05.780Z,98886.56
2023-05-23T17:09:32.684Z,98888.38
2023-05-23T17:11:59.793Z,98886.63
2023-05-23T17:14:26.759Z,98886.09
2023-05-23T17:16:53.555Z,98888.06
2023-05-23T17:19:20.805Z,98885.84
2023-05-23T17:21:48.697Z,98885.41
2023-05-23T17:24:16.032Z,98889.31
2023-05-23T17:26:46.467Z,98886.47
2023-05-23T17:29:13.464Z,98899.28
2023-05-23T17:31:40.468Z,98893.50
2023-05-23T17:34:07.433Z,98898.13
2023-05-23T17:36:35.003Z,98895.53
2023-05-23T17:39:01.845Z,98899.97
2023-05-23T17:41:31.779Z,98901.81
2023-05-23T17:43:58.871Z,98902.41
2023-05-23T17:46:25.950Z,98906.47
2023-05-23T17:48:52.810Z,98910.28
2023-05-23T17:51:19.704Z,98910.09
2023-05-23T17:53:46.560Z,98906.09
2023-05-23T17:56:13.440Z,98906.72
2023-05-23T17:58:41.814Z,98909.84
2023-05-23T18:01:11.621Z,98919.13
2023-05-23T18:03:41.300Z,98923.38
2023-05-23T18:06:08.300Z,98928.88
2023-05-23T18:08:35.169Z,98934.38
2023-05-23T18:11:02.535Z,98935.16
2023-05-23T18:13:29.359Z,98942.94
2023-05-23T18:15:56.231Z,98942.50
2023-05-23T18:18:23.432Z,98946.88
2023-05-23T18:20:50.830Z,98944.38
2023-05-23T18:23:17.822Z,98943.13
2023-05-23T18:25:44.673Z,98940.72
2023-05-23T18:28:12.052Z,98943.47
2023-05-23T18:30:38.872Z,98943.03
2023-05-23T18:33:05.941Z,98947.28
2023-05-23T18:35:32.958Z,98942.94
2023-05-23T18:37:59.810Z,98942.94
2023-05-23T18:40:27.124Z,98947.50
2023-05-23T18:42:54.266Z,98951.41
2023-05-23T18:45:21.493Z,98962.13
2023-05-23T18:47:48.554Z,98954.47
2023-05-23T18:50:15.528Z,98969.34
2023-05-23T18:52:42.847Z,98969.00
2023-05-23T18:55:11.365Z,98977.09
2023-05-23T18:57:38.528Z,98979.63
2023-05-23T19:00:07.371Z,98974.59
2023-05-23T19:02:35.835Z,98984.44
2023-05-23T19:05:03.036Z,98985.44
2023-05-23T19:07:29.899Z,98982.69
2023-05-23T19:09:56.745Z,98982.47
2023-05-23T19:12:24.153Z,98989.00
2023-05-23T19:14:54.164Z,98995.25
2023-05-23T19:17:21.297Z,98989.47
2023-05-23T19:19:48.353Z,99000.06
2023-05-23T19:22:16.016Z,98998.00
2023-05-23T19:24:42.940Z,99003.25
2023-05-23T19:27:09.789Z,99013.91
2023-05-23T19:29:36.671Z,99006.81
2023-05-23T19:32:03.656Z,99019.72
2023-05-23T19:34:30.870Z,99016.88
2023-05-23T19:36:57.968Z,99025.41
2023-05-23T19:39:25.276Z,99027.25
2023-05-23T19:41:52.100Z,99027.25
2023-05-23T19:44:19.408Z,99028.38
2023-05-23T19:46:46.182Z,99026.00
2023-05-23T19:49:15.085Z,99034.22
2023-05-23T19:51:41.997Z,99035.34
2023-05-23T19:54:08.873Z,99032.16
2023-05-23T19:56:36.219Z,99031.34
2023-05-23T19:59:03.018Z,99031.56
2023-05-23T20:01:30.779Z,99030.94
2023-05-23T20:03:57.847Z,99036.78
2023-05-23T20:06:25.382Z,99038.25
2023-05-23T20:08:52.182Z,99039.13
2023-05-23T20:11:19.208Z,99036.41
2023-05-23T20:13:46.177Z,99051.25
2023-05-23T20:16:13.155Z,99055.13
2023-05-23T20:18:43.062Z,99054.78
2023-05-23T20:21:10.003Z,99058.66
2023-05-23T20:23:36.931Z,99055.78
2023-05-23T20:26:04.049Z,99058.41
2023-05-23T20:28:30.948Z,99066.16
2023-05-23T20:30:58.199Z,99068.41
2023-05-23T20:33:25.198Z,99068.63
2023-05-23T20:35:52.224Z,99060.72
2023-05-23T20:38:20.084Z,99070.44
2023-05-23T20:40:50.833Z,99070.84
2023-05-23T20:43:22.205Z,99069.22
2023-05-23T20:45:49.088Z,99070.47
2023-05-23T20:48:16.116Z,99077.91
2023-05-23T20:50:46.199Z,99083.41
2023-05-23T20:53:13.215Z,99082.72
2023-05-23T20:55:40.575Z,99089.00
2023-05-23T20:58:07.750Z,99096.16
2023-05-23T21:00:34.548Z,99091.66
2023-05-23T21:03:02.428Z,99098.63
2023-05-23T21:05:30.073Z,99102.31
2023-05-23T21:07:56.947Z,99098.75
2023-05-23T21:10:23.733Z,99100.06
2023-05-23T21:12:50.856Z,99108.75
2023-05-23T21:15:18.517Z,99103.63
2023-05-23T21:17:45.837Z,99106.41
2023-05-23T21:20:13.572Z,99118.50
2023-05-23T21:22:40.940Z,99112.41
2023-05-23T21:25:08.182Z,99117.69
2023-05-23T21:27:35.105Z,99116.56
2023-05-23T21:30:02.542Z,99120.78
2023-05-23T21:32:29.592Z,99116.09
2023-05-23T21:34:56.649Z,99108.41
2023-05-23T21:37:24.423Z,99113.53
2023-05-23T21:39:52.594Z,99112.75
2023-05-23T21:42:20.851Z,99115.47
2023-05-23T21:44:48.144Z,99108.59
2023-05-23T21:47:14.972Z,99118.41
2023-05-23T21:49:42.379Z,99115.00
2023-05-23T21:52:09.214Z,99117.22
2023-05-23T21:54:36.199Z,99117.88
2023-05-23T21:57:03.207Z,99118.72
2023-05-23T21:59:30.644Z,99120.41
2023-05-23T22:01:57.579Z,99123.78
2023-05-23T22:04:24.556Z,99126.06
2023-05-23T22:06:55.765Z,99120.31
2023-05-23T22:09:22.553Z,99131.09
2023-05-23T22:11:49.337Z,99124.81
2023-05-23T22:14:16.090Z,99128.22
2023-05-23T22:16:42.965Z,99132.56
2023-05-23T22:19:12.740Z,99133.69
2023-05-23T22:21:39.657Z,99130.13
2023-05-23T22:24:06.826Z,99136.44
2023-05-23T22:26:33.678Z,99134.00
2023-05-23T22:29:00.976Z,99137.75
2023-05-23T22:31:30.703Z,99137.28
2023-05-23T22:33:57.577Z,99138.41
2023-05-23T22:36:24.576Z,99143.72
2023-05-23T22:38:51.538Z,99140.66
2023-05-23T22:41:22.314Z,99147.44
2023-05-23T22:43:49.532Z,99150.50
2023-05-23T22:46:16.919Z,99149.53
2023-05-23T22:48:44.784Z,99146.31
2023-05-23T22:51:13.318Z,99135.84
2023-05-23T22:53:41.195Z,99135.53
2023-05-23T22:56:08.060Z,99130.19
2023-05-23T22:58:35.004Z,99125.25
2023-05-23T23:01:01.843Z,99117.22
2023-05-23T23:03:28.771Z,99118.34
2023-05-23T23:05:55.616Z,99117.88
2023-05-23T23:08:22.492Z,99121.72
2023-05-23T23:10:49.356Z,99121.09
2023-05-23T23:13:19.330Z,99128.03
2023-05-23T23:15:49.645Z,99131.28
2023-05-23T23:18:16.641Z,99119.03
2023-05-23T23:20:43.943Z,99132.06
2023-05-23T23:23:11.353Z,99123.38
2023-05-23T23:25:40.202Z,99117.78
2023-05-23T23:28:07.126Z,99120.34
2023-05-23T23:30:33.958Z,99117.44
2023-05-23T23:33:03.583Z,99115.69
2023-05-23T23:35:30.461Z,99121.47
2023-05-23T23:37:59.242Z,99111.34
2023-05-23T23:40:26.391Z,99112.00
2023-05-23T23:42:53.491Z,99114.06
2023-05-23T23:45:23.353Z,99110.88
2023-05-23T23:47:50.219Z,99110.69
2023-05-23T23:50:17.138Z,99114.41
2023-05-23T23:52:44.197Z,99106.53
2023-05-23T23:55:11.143Z,99116.47
2023-05-23T23:57:38.000Z,99118.91
